»·PEaware :: SKW24 KDEN-KEGE

SKW24 :: KDEN-KEGE

FLIGHT INFORMATION

Flight Status: Arrived
Operator:
SkyWest Airlines
More flights by this operator :: More flights under this callsign
Pilot: Nathan P. (3026)
Aircraft: BRITISH AERO BAe-4100 JETSTREAM 41
(JS41)
More flights by this aircraft type
Origin: KDEN Denver Intl
United States
Destination: KEGE Eagle Co Regl
United States
More flights between these airports :: More routes between these airports
Route: +ROCKI4 RLG
File this flight plan on PilotEdge
Remarks:
Altitude:
(Current/Filed)
16,000ft
Speed:
(Current/Filed)
240kts
Departed: 05-Nov-19 03:41 PM
Arrived: 05-Nov-19 04:15 PM
Distance/Time
Traveled:
105nm/0:34
Distance/Time
To Go:
Arrived

Flight Plot

Page will automatically refresh every two minutes.

Flight plan parsing failed; only flown route is shown


Map Options




Map Legend


Flown Route
Filed Route
Departure Airport
Arrival Airport
Navaid (VOR, NDB)
Fix

Horizontal Profiles

Position Reports

Time Latitude Longitude Heading Altitude Ground
Speed
05-Nov-19 14:55 39.854117 -104.668789 134 5436ft 0kts
05-Nov-19 14:56 39.854117 -104.668789 134 5436ft 0kts
05-Nov-19 14:57 39.854117 -104.668789 134 5436ft 0kts
05-Nov-19 14:58 39.854117 -104.668789 134 5436ft 0kts
05-Nov-19 14:59 39.854117 -104.668789 134 5436ft 0kts
05-Nov-19 15:00 39.854117 -104.668789 134 5436ft 0kts
05-Nov-19 15:01 39.854117 -104.668789 134 5436ft 0kts
05-Nov-19 15:02 39.854117 -104.668789 134 5436ft 0kts
05-Nov-19 15:03 39.854117 -104.668789 134 5436ft 0kts
05-Nov-19 15:04 39.854117 -104.668789 134 5436ft 0kts
05-Nov-19 15:05 39.854117 -104.668789 134 5436ft 0kts
05-Nov-19 15:06 39.854117 -104.668789 134 5436ft 0kts
05-Nov-19 15:07 39.854117 -104.668789 134 5436ft 0kts
05-Nov-19 15:08 39.854117 -104.668789 134 5436ft 0kts
05-Nov-19 15:09 39.854117 -104.668789 134 5436ft 0kts
05-Nov-19 15:10 39.854117 -104.668789 134 5436ft 0kts
05-Nov-19 15:11 39.854117 -104.668789 134 5436ft 0kts
05-Nov-19 15:12 39.854117 -104.668789 134 5436ft 0kts
05-Nov-19 15:13 39.854117 -104.668789 134 5436ft 0kts
05-Nov-19 15:14 39.854117 -104.668789 134 5436ft 0kts
05-Nov-19 15:15 39.854117 -104.668789 134 5436ft 0kts
05-Nov-19 15:16 39.854117 -104.668789 134 5436ft 0kts
05-Nov-19 15:17 39.854117 -104.668789 134 5436ft 0kts
05-Nov-19 15:18 39.854117 -104.668789 134 5436ft 0kts
05-Nov-19 15:19 39.854117 -104.668789 134 5436ft 0kts
05-Nov-19 15:20 39.854117 -104.668789 134 5436ft 0kts
05-Nov-19 15:21 39.854117 -104.668789 134 5436ft 0kts
05-Nov-19 15:22 39.854117 -104.668789 134 5436ft 0kts
05-Nov-19 15:23 39.854117 -104.668789 134 5436ft 0kts
05-Nov-19 15:24 39.854117 -104.668789 134 5436ft 0kts
05-Nov-19 15:25 39.854117 -104.668789 134 5436ft 0kts
05-Nov-19 15:26 39.854117 -104.668790 134 5436ft 0kts
05-Nov-19 15:27 39.854120 -104.668793 135 5436ft 0kts
05-Nov-19 15:28 39.854124 -104.668799 135 5436ft 0kts
05-Nov-19 15:29 39.854158 -104.668842 135 5436ft 0kts
05-Nov-19 15:30 39.854273 -104.668434 17 5436ft 0kts
05-Nov-19 15:31 39.855688 -104.668573 308 5436ft 11kts
05-Nov-19 15:32 39.855947 -104.674139 270 5436ft 18kts
05-Nov-19 15:33 39.856042 -104.678158 270 5436ft 21kts
05-Nov-19 15:34 39.856000 -104.681221 271 5436ft 3kts
05-Nov-19 15:35 39.856015 -104.683163 269 5436ft 0kts
05-Nov-19 15:36 39.851924 -104.684038 177 5436ft 15kts
05-Nov-19 15:37 39.848475 -104.684081 181 5436ft 19kts
05-Nov-19 15:38 39.843547 -104.684130 179 5436ft 17kts
05-Nov-19 15:39 39.840672 -104.684793 270 5436ft 0kts
05-Nov-19 15:40 39.841069 -104.706342 276 5517ft 152kts
05-Nov-19 15:41 39.852494 -104.764543 297 7046ft 184kts
05-Nov-19 15:42 39.877764 -104.824850 297 8538ft 193kts
05-Nov-19 15:43 39.904362 -104.885566 297 10029ft 192kts
05-Nov-19 15:44 39.930517 -104.946850 297 11081ft 204kts
05-Nov-19 15:45 39.950796 -105.015695 278 11992ft 201kts
05-Nov-19 15:46 39.958749 -105.085409 279 13237ft 189kts
05-Nov-19 15:47 39.967043 -105.152349 279 14421ft 185kts
05-Nov-19 15:48 39.975216 -105.217835 279 15598ft 180kts
05-Nov-19 15:49 39.983517 -105.285824 280 16013ft 207kts
05-Nov-19 15:50 39.992982 -105.362659 279 16021ft 220kts
05-Nov-19 15:51 40.002700 -105.442283 280 16022ft 222kts
05-Nov-19 15:53 40.012517 -105.523287 279 15990ft 226kts
05-Nov-19 15:54 40.022307 -105.603987 280 16010ft 225kts
05-Nov-19 15:55 40.029050 -105.686137 269 16064ft 228kts
05-Nov-19 15:56 40.026315 -105.769653 269 16058ft 234kts
05-Nov-19 15:57 40.023437 -105.857959 269 16060ft 255kts
05-Nov-19 15:58 40.020194 -105.954130 269 16049ft 271kts
05-Nov-19 15:59 40.016789 -106.052953 269 16055ft 274kts
05-Nov-19 16:00 40.013302 -106.153049 269 15862ft 277kts
05-Nov-19 16:01 40.009735 -106.252418 268 15188ft 275kts
05-Nov-19 16:02 40.006037 -106.352450 268 14298ft 277kts
05-Nov-19 16:03 39.982978 -106.442825 227 13936ft 263kts
05-Nov-19 16:04 39.918693 -106.477855 203 13817ft 234kts
05-Nov-19 16:05 39.860056 -106.502587 203 13824ft 213kts
05-Nov-19 16:06 39.804142 -106.526100 203 13821ft 210kts
05-Nov-19 16:07 39.744833 -106.551016 202 12966ft 230kts
05-Nov-19 16:08 39.691414 -106.589672 238 11852ft 214kts
05-Nov-19 16:09 39.679728 -106.656613 262 11256ft 178kts
05-Nov-19 16:09 39.672970 -106.704164 260 10368ft 157kts
05-Nov-19 16:11 39.663873 -106.767042 258 9195ft 143kts
05-Nov-19 16:12 39.656465 -106.816831 256 8194ft 140kts
05-Nov-19 16:12 39.650353 -106.856030 257 7455ft 124kts
05-Nov-19 16:14 39.643819 -106.906264 259 6528ft 111kts
05-Nov-19 16:15 39.641133 -106.922622 141 6520ft 6kts
05-Nov-19 16:15 39.641035 -106.921784 81 6520ft 17kts
05-Nov-19 16:16 39.641205 -106.915581 166 6520ft 9kts
05-Nov-19 16:18 39.640584 -106.915458 171 6520ft 0kts
05-Nov-19 16:18 39.640583 -106.915458 171 6520ft 0kts
05-Nov-19 16:19 39.640583 -106.915458 171 6520ft 0kts

Navigation Log

Ident Type
Flight plan parsing failed, navigation log unavailable